createdAt,value
2018-05-07T00:01:09.209Z,101010.43
2018-05-07T00:03:37.480Z,101012.52
2018-05-07T00:06:06.271Z,101011.27
2018-05-07T00:08:35.362Z,101016.66
2018-05-07T00:11:03.725Z,101013.80
2018-05-07T00:13:32.087Z,101015.21
2018-05-07T00:16:01.175Z,101011.05
2018-05-07T00:18:29.478Z,101014.80
2018-05-07T00:20:57.778Z,101011.02
2018-05-07T00:23:26.123Z,101011.58
2018-05-07T00:25:55.253Z,101015.02
2018-05-07T00:28:23.684Z,101014.17
2018-05-07T00:30:51.987Z,101011.50
2018-05-07T00:33:20.426Z,101015.59
2018-05-07T00:35:48.836Z,101009.16
2018-05-07T00:38:18.339Z,101011.53
2018-05-07T00:40:47.485Z,101002.72
2018-05-07T00:43:16.266Z,101013.54
2018-05-07T00:45:44.577Z,101007.16
2018-05-07T00:48:12.905Z,101009.33
2018-05-07T00:50:41.716Z,101009.50
2018-05-07T00:53:10.055Z,101011.69
2018-05-07T00:55:38.392Z,101014.55
2018-05-07T00:58:06.768Z,101020.34
2018-05-07T01:00:35.912Z,101020.22
2018-05-07T01:03:05.087Z,101019.58
2018-05-07T01:05:34.190Z,101018.25
2018-05-07T01:08:03.307Z,101016.42
2018-05-07T01:10:31.680Z,101022.67
2018-05-07T01:13:00.090Z,101021.75
2018-05-07T01:15:28.389Z,101013.64
2018-05-07T01:17:56.720Z,101016.02
2018-05-07T01:20:25.055Z,101016.20
2018-05-07T01:22:53.362Z,101011.89
2018-05-07T01:25:22.469Z,101013.23
2018-05-07T01:27:50.801Z,101019.38
2018-05-07T01:30:20.234Z,101020.48
2018-05-07T01:32:53.711Z,101017.11
2018-05-07T01:35:22.431Z,101018.21
2018-05-07T01:37:50.798Z,101013.80
2018-05-07T01:40:20.134Z,101014.02
2018-05-07T01:42:48.489Z,101010.21
2018-05-07T01:45:17.606Z,101016.16
2018-05-07T01:47:46.026Z,101014.72
2018-05-07T01:50:18.592Z,101015.13
2018-05-07T01:52:46.925Z,101014.97
2018-05-07T01:55:16.039Z,101013.34
2018-05-07T01:57:44.382Z,101009.22
2018-05-07T02:00:13.684Z,101012.50
2018-05-07T02:02:42.148Z,101010.45
2018-05-07T02:05:10.451Z,101010.77
2018-05-07T02:07:39.564Z,101018.05
2018-05-07T02:10:07.880Z,101022.67
2018-05-07T02:12:36.222Z,101018.67
2018-05-07T02:15:04.639Z,101020.11
2018-05-07T02:17:32.942Z,101021.53
2018-05-07T02:20:01.259Z,101016.63
2018-05-07T02:22:29.644Z,101019.08
2018-05-07T02:24:57.924Z,101018.38
2018-05-07T02:27:26.688Z,101017.13
2018-05-07T02:29:56.544Z,101010.55
2018-05-07T02:32:25.103Z,101008.83
2018-05-07T02:34:53.470Z,101010.64
2018-05-07T02:37:21.780Z,101012.20
2018-05-07T02:39:50.105Z,101012.11
2018-05-07T02:42:18.417Z,101014.16
2018-05-07T02:44:46.723Z,101004.91
2018-05-07T02:47:15.356Z,101007.89
2018-05-07T02:49:44.865Z,101003.25
2018-05-07T02:52:14.031Z,101004.27
2018-05-07T02:54:43.039Z,100999.02
2018-05-07T02:57:12.822Z,100992.75
2018-05-07T02:59:41.235Z,100998.09
2018-05-07T03:02:10.364Z,100995.02
2018-05-07T03:04:38.736Z,100994.27
2018-05-07T03:07:07.092Z,100998.49
2018-05-07T03:09:36.217Z,101003.23
2018-05-07T03:12:04.658Z,101000.04
2018-05-07T03:14:33.155Z,101003.34
2018-05-07T03:17:02.262Z,101001.60
2018-05-07T03:19:31.540Z,101004.45
2018-05-07T03:22:00.709Z,101001.99
2018-05-07T03:24:29.853Z,100993.35
2018-05-07T03:26:58.956Z,100990.14
2018-05-07T03:29:28.263Z,100993.89
2018-05-07T03:31:56.590Z,100988.42
2018-05-07T03:34:25.054Z,100987.30
2018-05-07T03:39:29.040Z,100984.77
2018-05-07T03:41:57.444Z,100983.22
2018-05-07T03:44:25.834Z,100983.83
2018-05-07T03:46:55.058Z,100983.80
2018-05-07T03:49:24.184Z,100983.30
2018-05-07T03:51:53.380Z,100979.50
2018-05-07T03:54:21.986Z,100983.91
2018-05-07T03:56:50.449Z,100978.76
2018-05-07T03:59:19.593Z,100976.41
2018-05-07T04:01:47.923Z,100977.02
2018-05-07T04:04:16.309Z,100973.38
2018-05-07T04:06:49.675Z,100977.98
2018-05-07T04:09:18.113Z,100975.41
2018-05-07T04:11:46.504Z,100972.95
2018-05-07T04:14:14.852Z,100965.89
2018-05-07T04:20:16.184Z,100960.34
2018-05-07T04:23:02.563Z,100964.99
2018-05-07T04:25:30.841Z,100966.97
2018-05-07T04:27:59.228Z,100965.72
2018-05-07T04:30:28.333Z,100964.96
2018-05-07T04:32:56.735Z,100969.00
2018-05-07T04:35:25.867Z,100964.14
2018-05-07T04:37:54.264Z,100966.45
2018-05-07T04:40:22.644Z,100966.26
2018-05-07T04:42:51.790Z,100962.05
2018-05-07T04:45:20.908Z,100966.28
2018-05-07T04:47:49.228Z,100959.67
2018-05-07T04:50:17.546Z,100959.59
2018-05-07T04:52:46.664Z,100960.25
2018-05-07T04:55:15.074Z,100963.36
2018-05-07T04:57:43.427Z,100963.12
2018-05-07T05:00:11.756Z,100957.66
2018-05-07T05:02:40.076Z,100968.80
2018-05-07T05:05:08.488Z,100960.30
2018-05-07T05:07:37.209Z,100967.75
2018-05-07T05:10:05.624Z,100964.54
2018-05-07T05:12:33.997Z,100969.22
2018-05-07T05:15:02.408Z,100970.93
2018-05-07T05:17:30.705Z,100963.95
2018-05-07T05:19:58.999Z,100973.09
2018-05-07T05:22:27.314Z,100968.34
2018-05-07T05:24:55.729Z,100968.75
2018-05-07T05:27:24.072Z,100975.66
2018-05-07T05:29:52.383Z,100966.98
2018-05-07T05:32:20.732Z,100976.33
2018-05-07T05:34:49.131Z,100974.52
2018-05-07T05:37:18.376Z,100972.67
2018-05-07T05:39:46.710Z,100975.69
2018-05-07T05:42:15.182Z,100969.06
2018-05-07T05:44:43.505Z,100971.41
2018-05-07T05:47:12.597Z,100971.42
2018-05-07T05:49:41.576Z,100971.80
2018-05-07T05:52:09.934Z,100965.27
2018-05-07T05:54:38.928Z,100964.80
2018-05-07T05:57:07.377Z,100970.52
2018-05-07T05:59:35.844Z,100967.77
2018-05-07T06:02:04.329Z,100957.72
2018-05-07T06:04:33.431Z,100961.34
2018-05-07T06:07:06.710Z,100967.14
2018-05-07T06:09:35.073Z,100960.47
2018-05-07T06:12:03.372Z,100963.34
2018-05-07T06:14:31.830Z,100955.16
2018-05-07T06:17:00.098Z,100959.31
2018-05-07T06:19:28.449Z,100956.05
2018-05-07T06:21:56.789Z,100951.91
2018-05-07T06:24:25.934Z,100961.39
2018-05-07T06:26:54.337Z,100957.59
2018-05-07T06:29:22.721Z,100961.63
2018-05-07T06:31:51.881Z,100965.08
2018-05-07T06:34:20.750Z,100955.87
2018-05-07T06:36:49.043Z,100958.78
2018-05-07T06:39:17.352Z,100956.02
2018-05-07T06:41:45.681Z,100956.17
2018-05-07T06:44:14.817Z,100951.98
2018-05-07T06:46:43.129Z,100949.44
2018-05-07T06:49:11.392Z,100955.75
2018-05-07T06:51:39.681Z,100954.58
2018-05-07T06:54:07.992Z,100952.66
2018-05-07T06:56:36.365Z,100955.13
2018-05-07T06:59:05.515Z,100945.27
2018-05-07T07:01:38.116Z,100953.95
2018-05-07T07:04:06.477Z,100946.09
2018-05-07T07:06:34.829Z,100946.74
2018-05-07T07:09:03.138Z,100946.39
2018-05-07T07:11:31.464Z,100936.62
2018-05-07T07:14:00.552Z,100935.23
2018-05-07T07:16:29.753Z,100934.67
2018-05-07T07:18:58.110Z,100934.95
2018-05-07T07:21:27.247Z,100933.58
2018-05-07T07:23:55.562Z,100942.20
2018-05-07T07:26:23.955Z,100937.29
2018-05-07T07:28:52.344Z,100933.08
2018-05-07T07:31:20.651Z,100939.42
2018-05-07T07:33:49.176Z,100935.69
2018-05-07T07:36:17.529Z,100937.56
2018-05-07T07:38:45.844Z,100934.56
2018-05-07T07:41:14.181Z,100938.92
2018-05-07T07:43:42.848Z,100938.70
2018-05-07T07:46:11.927Z,100946.25
2018-05-07T07:48:40.238Z,100945.31
2018-05-07T07:51:08.537Z,100939.50
2018-05-07T07:53:36.895Z,100929.73
2018-05-07T07:56:05.184Z,100933.73
2018-05-07T07:58:33.494Z,100936.16
2018-05-07T08:01:06.281Z,100934.46
2018-05-07T08:03:34.622Z,100930.50
2018-05-07T08:06:02.971Z,100931.42
2018-05-07T08:08:31.375Z,100926.73
2018-05-07T08:10:59.708Z,100922.27
2018-05-07T08:13:28.031Z,100917.23
2018-05-07T08:15:56.409Z,100920.34
2018-05-07T08:18:24.768Z,100916.72
2018-05-07T08:20:58.394Z,100920.98
2018-05-07T08:23:26.706Z,100913.92
2018-05-07T08:26:01.274Z,100917.97
2018-05-07T08:28:30.448Z,100914.77
2018-05-07T08:30:58.768Z,100913.28
2018-05-07T08:33:27.066Z,100919.42
2018-05-07T08:35:55.597Z,100916.44
2018-05-07T08:38:24.674Z,100904.19
2018-05-07T08:40:52.960Z,100906.20
2018-05-07T08:43:22.829Z,100893.95
2018-05-07T08:45:51.129Z,100898.88
2018-05-07T08:48:23.925Z,100902.19
2018-05-07T08:50:53.231Z,100897.63
2018-05-07T08:53:21.659Z,100904.17
2018-05-07T08:55:54.245Z,100895.70
2018-05-07T08:58:27.047Z,100890.09
2018-05-07T09:00:55.386Z,100886.45
2018-05-07T09:03:24.616Z,100881.05
2018-05-07T09:05:53.011Z,100886.38
2018-05-07T09:08:21.378Z,100877.31
2018-05-07T09:10:49.695Z,100889.69
2018-05-07T09:13:18.138Z,100876.77
2018-05-07T09:15:46.504Z,100882.17
2018-05-07T09:18:14.837Z,100875.55
2018-05-07T09:20:43.922Z,100870.38
2018-05-07T09:23:14.002Z,100872.86
2018-05-07T09:25:42.644Z,100865.32
2018-05-07T09:28:11.739Z,100860.09
2018-05-07T09:30:44.422Z,100854.02
2018-05-07T09:33:13.525Z,100858.77
2018-05-07T09:35:43.397Z,100851.05
2018-05-07T09:38:11.873Z,100853.72
2018-05-07T09:40:41.183Z,100847.95
2018-05-07T09:43:09.785Z,100833.73
2018-05-07T09:45:39.008Z,100842.55
2018-05-07T09:48:08.201Z,100837.66
2018-05-07T09:50:36.509Z,100835.94
2018-05-07T09:53:04.837Z,100834.96
2018-05-07T09:55:33.189Z,100834.38
2018-05-07T09:58:04.586Z,100825.61
2018-05-07T10:00:37.379Z,100831.16
2018-05-07T10:03:05.762Z,100835.02
2018-05-07T10:05:34.872Z,100841.25
2018-05-07T10:08:03.517Z,100831.59
2018-05-07T10:10:31.845Z,100822.06
2018-05-07T10:13:00.173Z,100824.48
2018-05-07T10:15:29.261Z,100817.78
2018-05-07T10:17:58.298Z,100820.59
2018-05-07T10:20:26.785Z,100812.20
2018-05-07T10:22:55.189Z,100809.13
2018-05-07T10:25:23.509Z,100811.70
2018-05-07T10:27:52.649Z,100800.58
2018-05-07T10:30:21.023Z,100800.66
2018-05-07T10:32:49.355Z,100796.98
2018-05-07T10:35:22.407Z,100797.25
2018-05-07T10:37:50.845Z,100795.86
2018-05-07T10:40:19.302Z,100798.38
2018-05-07T10:42:48.495Z,100796.55
2018-05-07T10:45:16.747Z,100793.20
2018-05-07T10:47:45.049Z,100791.62
2018-05-07T10:50:14.197Z,100781.24
2018-05-07T10:52:42.536Z,100784.34
2018-05-07T10:55:12.310Z,100781.84
2018-05-07T10:57:41.404Z,100786.39
2018-05-07T11:00:09.713Z,100779.88
2018-05-07T11:02:38.817Z,100774.70
2018-05-07T11:05:08.343Z,100780.22
2018-05-07T11:07:36.650Z,100776.08
2018-05-07T11:10:04.950Z,100772.87
2018-05-07T11:12:34.196Z,100793.55
2018-05-07T11:15:03.470Z,100770.34
2018-05-07T11:17:33.408Z,100766.77
2018-05-07T11:20:01.692Z,100772.73
2018-05-07T11:22:30.403Z,100766.36
2018-05-07T11:24:58.729Z,100744.49
2018-05-07T11:27:31.437Z,100760.70
2018-05-07T11:30:00.477Z,100744.12
2018-05-07T11:32:29.000Z,100751.12
2018-05-07T11:34:57.324Z,100748.67
2018-05-07T11:37:25.612Z,100743.78
2018-05-07T11:39:53.957Z,100755.69
2018-05-07T11:42:22.281Z,100745.98
2018-05-07T11:44:50.673Z,100745.12
2018-05-07T11:47:19.760Z,100740.36
2018-05-07T11:49:48.131Z,100741.48
2018-05-07T11:52:16.450Z,100735.08
2018-05-07T11:54:45.708Z,100734.72
2018-05-07T11:57:14.109Z,100730.61
2018-05-07T11:59:43.258Z,100730.00
2018-05-07T12:02:11.912Z,100732.09
2018-05-07T12:04:40.221Z,100738.95
2018-05-07T12:07:08.566Z,100732.57
2018-05-07T12:09:36.863Z,100728.03
2018-05-07T12:12:05.206Z,100731.00
2018-05-07T12:14:36.187Z,100733.36
2018-05-07T12:17:04.526Z,100722.80
2018-05-07T12:19:33.577Z,100720.42
2018-05-07T12:22:01.970Z,100720.52
2018-05-07T12:24:30.321Z,100718.44
2018-05-07T12:26:59.446Z,100709.48
2018-05-07T12:29:27.790Z,100712.97
2018-05-07T12:31:56.251Z,100712.16
2018-05-07T12:34:28.685Z,100719.47
2018-05-07T12:36:59.859Z,100712.66
2018-05-07T12:39:29.790Z,100707.14
2018-05-07T12:41:58.278Z,100705.02
2018-05-07T12:44:26.667Z,100705.03
2018-05-07T12:46:55.052Z,100709.30
2018-05-07T12:49:23.461Z,100697.41
2018-05-07T12:51:51.933Z,100699.17
2018-05-07T12:54:20.336Z,100685.42
2018-05-07T12:56:48.780Z,100691.88
2018-05-07T12:59:17.701Z,100688.98
2018-05-07T13:01:47.037Z,100684.56
2018-05-07T13:04:19.423Z,100681.37
2018-05-07T13:06:47.925Z,100686.84
2018-05-07T13:09:16.806Z,100669.86
2018-05-07T13:11:45.308Z,100672.03
2018-05-07T13:14:13.859Z,100663.59
2018-05-07T13:16:42.230Z,100655.83
2018-05-07T13:19:10.750Z,100657.45
2018-05-07T13:21:39.158Z,100668.92
2018-05-07T13:24:07.499Z,100656.43
2018-05-07T13:26:35.788Z,100647.25
2018-05-07T13:29:04.265Z,100645.90
2018-05-07T13:31:33.429Z,100635.02
2018-05-07T13:34:01.925Z,100645.80
2018-05-07T13:36:30.353Z,100637.63
2018-05-07T13:38:58.847Z,100632.59
2018-05-07T13:41:28.166Z,100641.16
2018-05-07T13:43:57.269Z,100626.55
2018-05-07T13:46:30.252Z,100613.65
2018-05-07T13:48:59.708Z,100621.64
2018-05-07T13:51:28.079Z,100618.92
2018-05-07T13:53:56.544Z,100621.66
2018-05-07T13:56:24.928Z,100623.80
2018-05-07T13:58:53.362Z,100613.08
2018-05-07T14:01:24.395Z,100609.71
2018-05-07T14:03:52.753Z,100612.52
2018-05-07T14:06:21.938Z,100608.36
2018-05-07T14:08:50.294Z,100604.09
2018-05-07T14:11:18.777Z,100592.11
2018-05-07T14:13:47.229Z,100611.70
2018-05-07T14:16:16.479Z,100606.41
2018-05-07T14:18:44.955Z,100601.86
2018-05-07T14:21:13.314Z,100599.39
2018-05-07T14:23:41.697Z,100595.77
2018-05-07T14:26:10.020Z,100584.50
2018-05-07T14:28:38.317Z,100585.28
2018-05-07T14:31:07.470Z,100584.59
2018-05-07T14:33:36.559Z,100575.69
2018-05-07T14:36:04.953Z,100579.47
2018-05-07T14:38:33.275Z,100580.02
2018-05-07T14:41:02.380Z,100574.44
2018-05-07T14:43:32.283Z,100566.94
2018-05-07T14:46:00.749Z,100571.27
2018-05-07T14:48:29.949Z,100564.80
2018-05-07T14:50:59.966Z,100562.85
2018-05-07T14:53:32.645Z,100565.31
2018-05-07T14:56:02.085Z,100557.86
2018-05-07T14:58:31.346Z,100563.92
2018-05-07T15:01:00.397Z,100554.08
2018-05-07T15:03:29.337Z,100557.31
2018-05-07T15:05:58.128Z,100553.34
2018-05-07T15:08:28.598Z,100560.99
2018-05-07T15:10:58.120Z,100568.05
2018-05-07T15:13:28.660Z,100562.48
2018-05-07T15:15:58.424Z,100558.49
2018-05-07T15:18:28.343Z,100554.44
2018-05-07T15:20:57.365Z,100558.34
2018-05-07T15:23:26.766Z,100553.92
2018-05-07T15:25:55.350Z,100552.96
2018-05-07T15:28:23.942Z,100543.38
2018-05-07T15:30:53.465Z,100546.96
2018-05-07T15:33:26.697Z,100553.13
2018-05-07T15:35:55.363Z,100544.09
2018-05-07T15:38:24.111Z,100540.63
2018-05-07T15:40:52.684Z,100535.09
2018-05-07T15:43:21.921Z,100536.25
2018-05-07T15:45:51.087Z,100529.48
2018-05-07T15:48:19.837Z,100525.03
2018-05-07T15:50:48.581Z,100534.19
2018-05-07T15:53:17.883Z,100525.79
2018-05-07T15:55:46.661Z,100523.38
2018-05-07T15:58:15.218Z,100523.23
2018-05-07T16:00:44.839Z,100521.78
2018-05-07T16:03:16.506Z,100521.02
2018-05-07T16:05:44.957Z,100521.52
2018-05-07T16:08:14.659Z,100524.97
2018-05-07T16:10:43.507Z,100512.92
2018-05-07T16:13:12.224Z,100507.77
2018-05-07T16:15:40.976Z,100516.92
2018-05-07T16:18:09.757Z,100503.86
2018-05-07T16:20:39.100Z,100506.08
2018-05-07T16:23:08.896Z,100503.77
2018-05-07T16:25:37.776Z,100507.94
2018-05-07T16:28:07.362Z,100505.64
2018-05-07T16:30:36.874Z,100496.28
2018-05-07T16:33:05.684Z,100504.19
2018-05-07T16:35:37.299Z,100496.67
2018-05-07T16:38:11.020Z,100487.58
2018-05-07T16:40:39.314Z,100500.50
2018-05-07T16:43:07.687Z,100494.63
2018-05-07T16:45:36.825Z,100486.67
2018-05-07T16:48:06.816Z,100491.79
2018-05-07T16:50:35.554Z,100483.23
2018-05-07T16:53:04.217Z,100487.48
2018-05-07T16:55:33.366Z,100496.67
2018-05-07T16:58:02.032Z,100496.24
2018-05-07T17:00:30.383Z,100494.33
2018-05-07T17:02:59.492Z,100496.50
2018-05-07T17:05:27.812Z,100498.86
2018-05-07T17:07:57.239Z,100495.67
2018-05-07T17:10:25.558Z,100492.24
2018-05-07T17:12:53.905Z,100490.48
2018-05-07T17:15:22.208Z,100485.62
2018-05-07T17:17:51.991Z,100486.62
2018-05-07T17:20:20.323Z,100488.30
2018-05-07T17:22:49.533Z,100495.01
2018-05-07T17:25:18.022Z,100484.73
2018-05-07T17:27:46.563Z,100480.20
2018-05-07T17:30:15.924Z,100484.06
2018-05-07T17:32:44.753Z,100483.86
2018-05-07T17:35:14.277Z,100483.63
2018-05-07T17:37:42.996Z,100473.38
2018-05-07T17:40:11.735Z,100479.46
2018-05-07T17:42:41.072Z,100476.42
2018-05-07T17:48:40.884Z,100490.52
2018-05-07T17:51:09.240Z,100484.84
2018-05-07T17:53:38.463Z,100482.25
2018-05-07T17:56:06.870Z,100477.42
2018-05-07T17:58:35.205Z,100480.09
2018-05-07T18:01:09.214Z,100473.63
2018-05-07T18:03:38.276Z,100472.52
2018-05-07T18:06:07.672Z,100472.83
2018-05-07T18:08:36.040Z,100471.68
2018-05-07T18:11:04.339Z,100465.91
2018-05-07T18:13:32.656Z,100470.42
2018-05-07T18:16:05.921Z,100474.55
2018-05-07T18:18:34.225Z,100471.91
2018-05-07T18:21:03.378Z,100471.05
2018-05-07T18:23:31.685Z,100473.76
2018-05-07T18:26:00.777Z,100467.61
2018-05-07T18:28:29.825Z,100464.42
2018-05-07T18:30:58.151Z,100464.34
2018-05-07T18:33:27.215Z,100466.55
2018-05-07T18:35:55.537Z,100471.99
2018-05-07T18:38:24.629Z,100469.45
2018-05-07T18:40:53.722Z,100467.91
2018-05-07T18:43:22.960Z,100469.28
2018-05-07T18:45:51.433Z,100471.20
2018-05-07T18:48:19.987Z,100468.55
2018-05-07T18:50:49.294Z,100467.75
2018-05-07T18:53:18.343Z,100477.67
2018-05-07T18:55:46.909Z,100478.11
2018-05-07T18:58:15.209Z,100476.91
2018-05-07T19:00:44.393Z,100473.55
2018-05-07T19:03:12.717Z,100476.93
2018-05-07T19:05:41.808Z,100479.39
2018-05-07T19:08:10.937Z,100476.28
2018-05-07T19:10:39.272Z,100478.70
2018-05-07T19:13:07.648Z,100481.28
2018-05-07T19:15:35.998Z,100474.27
2018-05-07T19:18:04.397Z,100479.94
2018-05-07T19:20:33.092Z,100477.78
2018-05-07T19:23:01.681Z,100478.55
2018-05-07T19:25:31.018Z,100479.36
2018-05-07T19:27:59.435Z,100485.83
2018-05-07T19:30:27.943Z,100482.05
2018-05-07T19:32:56.436Z,100478.52
2018-05-07T19:35:24.929Z,100484.30
2018-05-07T19:37:58.364Z,100487.53
2018-05-07T19:40:26.792Z,100493.31
2018-05-07T19:42:55.911Z,100489.10
2018-05-07T19:45:25.060Z,100489.47
2018-05-07T19:47:53.439Z,100490.61
2018-05-07T19:50:21.877Z,100493.25
2018-05-07T19:52:50.309Z,100485.89
2018-05-07T19:55:19.515Z,100485.55
2018-05-07T19:57:48.369Z,100487.30
2018-05-07T20:00:16.816Z,100492.07
2018-05-07T20:02:45.251Z,100493.77
2018-05-07T20:05:13.659Z,100494.01
2018-05-07T20:07:42.766Z,100499.47
2018-05-07T20:10:11.988Z,100494.55
2018-05-07T20:12:44.141Z,100494.91
2018-05-07T20:15:13.258Z,100492.25
2018-05-07T20:17:41.602Z,100491.58
2018-05-07T20:20:10.713Z,100494.75
2018-05-07T20:22:39.991Z,100493.50
2018-05-07T20:25:08.489Z,100489.53
2018-05-07T20:27:37.653Z,100483.80
2018-05-07T20:30:05.985Z,100486.03
2018-05-07T20:32:34.445Z,100480.86
2018-05-07T20:35:03.065Z,100481.41
2018-05-07T20:37:31.526Z,100488.10
2018-05-07T20:40:00.141Z,100481.91
2018-05-07T20:42:28.592Z,100478.30
2018-05-07T20:44:57.024Z,100478.05
2018-05-07T20:47:25.431Z,100480.05
2018-05-07T20:49:55.135Z,100477.25
2018-05-07T20:52:23.413Z,100478.81
2018-05-07T20:54:52.374Z,100479.20
2018-05-07T20:57:20.794Z,100477.63
2018-05-07T20:59:51.627Z,100485.27
2018-05-07T21:02:19.954Z,100480.45
2018-05-07T21:04:48.374Z,100480.07
2018-05-07T21:07:20.821Z,100476.86
2018-05-07T21:09:51.026Z,100468.70
2018-05-07T21:12:19.413Z,100471.73
2018-05-07T21:14:47.764Z,100464.92
2018-05-07T21:17:16.554Z,100481.50
2018-05-07T21:19:44.940Z,100473.80
2018-05-07T21:22:13.837Z,100466.60
2018-05-07T21:24:47.633Z,100459.70
2018-05-07T21:27:15.983Z,100464.20
2018-05-07T21:29:49.222Z,100462.59
2018-05-07T21:32:17.497Z,100459.57
2018-05-07T21:34:45.826Z,100462.72
2018-05-07T21:37:14.872Z,100463.53
2018-05-07T21:39:47.466Z,100455.48
2018-05-07T21:42:16.713Z,100456.91
2018-05-07T21:44:45.858Z,100458.42
2018-05-07T21:47:14.300Z,100454.27
2018-05-07T21:49:43.532Z,100460.84
2018-05-07T21:52:11.919Z,100456.17
2018-05-07T21:54:40.232Z,100459.52
2018-05-07T21:57:08.782Z,100452.86
2018-05-07T21:59:37.149Z,100456.25
2018-05-07T22:02:05.454Z,100451.30
2018-05-07T22:04:33.787Z,100445.27
2018-05-07T22:07:02.099Z,100448.59
2018-05-07T22:09:34.935Z,100450.27
2018-05-07T22:12:03.238Z,100450.91
2018-05-07T22:14:31.542Z,100449.71
2018-05-07T22:16:59.882Z,100448.06
2018-05-07T22:19:28.220Z,100437.52
2018-05-07T22:21:56.837Z,100443.76
2018-05-07T22:24:25.123Z,100433.34
2018-05-07T22:26:53.449Z,100437.84
2018-05-07T22:29:21.714Z,100437.31
2018-05-07T22:31:50.050Z,100433.13
2018-05-07T22:34:22.308Z,100438.00
2018-05-07T22:36:51.414Z,100433.70
2018-05-07T22:39:30.859Z,100427.39
2018-05-07T22:41:59.556Z,100428.20
2018-05-07T22:44:27.982Z,100423.98
2018-05-07T22:46:56.302Z,100425.00
2018-05-07T22:49:24.696Z,100432.52
2018-05-07T22:51:53.285Z,100430.17
2018-05-07T22:54:21.618Z,100436.20
2018-05-07T22:56:50.723Z,100434.41
2018-05-07T22:59:19.845Z,100431.53
2018-05-07T23:01:48.250Z,100441.70
2018-05-07T23:04:16.496Z,100438.69
2018-05-07T23:06:44.823Z,100435.15
2018-05-07T23:09:13.153Z,100430.56
2018-05-07T23:11:41.521Z,100428.11
2018-05-07T23:14:09.882Z,100425.94
2018-05-07T23:16:38.935Z,100426.90
2018-05-07T23:19:07.272Z,100427.39
2018-05-07T23:21:35.552Z,100422.17
2018-05-07T23:24:04.203Z,100423.00
2018-05-07T23:26:32.516Z,100412.52
2018-05-07T23:29:00.827Z,100415.83
2018-05-07T23:31:33.334Z,100416.89
2018-05-07T23:34:01.655Z,100415.34
2018-05-07T23:36:34.266Z,100417.12
2018-05-07T23:39:02.667Z,100410.10
2018-05-07T23:41:32.104Z,100405.24
2018-05-07T23:44:00.421Z,100409.33
2018-05-07T23:46:29.593Z,100407.73
2018-05-07T23:48:57.998Z,100407.78
2018-05-07T23:51:26.332Z,100413.67
2018-05-07T23:53:58.797Z,100408.41
2018-05-07T23:56:27.839Z,100404.84
2018-05-07T23:58:56.140Z,100404.55
